Time;durP1;ratioP1;P1;durP2;ratioP2;P2;SDS_P1;SDS_P2;PMS_P1;PMS_P2;Temp;Humidity;BMP_temperature;BMP_pressure;BME280_temperature;BME280_humidity;BME280_pressure;Samples;Min_cycle;Max_cycle;Signal;HPM_P1;HPM_P2
2021/01/11 00:00:20;;;;;;;14.70;12.03;;;;;;;0.23;52.38;95631.03;7003583;28;20221;-71
2021/01/11 00:03:40;;;;;;;13.50;11.43;;;;;;;0.28;52.47;95634.28;6977725;28;20209;-71
2021/01/11 00:07:01;;;;;;;14.30;11.53;;;;;;;0.27;52.46;95620.38;7020380;28;20275;-69
2021/01/11 00:10:21;;;;;;;16.43;13.00;;;;;;;0.30;52.30;95628.06;7025379;28;20305;-70
2021/01/11 00:13:44;;;;;;;12.43;10.97;;;;;;;0.30;52.37;95630.69;7012678;28;20299;-71
2021/01/11 00:17:07;;;;;;;14.90;11.70;;;;;;;0.28;52.03;95624.69;7006103;28;20268;-71
2021/01/11 00:20:30;;;;;;;13.73;11.87;;;;;;;0.24;52.25;95627.50;7018628;28;20214;-71
2021/01/11 00:23:53;;;;;;;14.07;11.43;;;;;;;0.19;52.19;95625.09;7012023;28;20217;-71
2021/01/11 00:27:16;;;;;;;14.63;12.30;;;;;;;0.07;52.39;95623.00;7017301;28;20221;-71
2021/01/11 00:30:36;;;;;;;12.77;11.07;;;;;;;0.08;52.37;95627.31;6995029;28;20296;-70
2021/01/11 00:33:57;;;;;;;14.80;11.70;;;;;;;0.10;52.47;95627.25;7000551;28;20610;-71
2021/01/11 00:37:19;;;;;;;14.70;12.33;;;;;;;0.13;52.35;95630.56;6990878;28;20419;-70
2021/01/11 00:40:43;;;;;;;14.10;11.93;;;;;;;0.18;52.37;95631.22;6988487;27;20211;-70
2021/01/11 00:44:05;;;;;;;13.63;12.20;;;;;;;0.24;52.42;95635.34;6986307;28;20223;-71
2021/01/11 00:47:26;;;;;;;14.37;12.13;;;;;;;0.21;51.97;95635.47;7003009;28;20304;-70
2021/01/11 00:50:46;;;;;;;13.37;11.27;;;;;;;0.21;52.29;95630.22;7005400;28;20211;-71
2021/01/11 00:54:06;;;;;;;15.13;12.57;;;;;;;0.24;52.14;95640.56;6987415;28;20250;-71
2021/01/11 00:57:29;;;;;;;16.03;12.47;;;;;;;0.22;52.15;95642.38;6999985;28;20577;-71
2021/01/11 01:00:49;;;;;;;14.20;11.80;;;;;;;0.22;52.08;95632.78;6983839;28;20210;-70
2021/01/11 01:04:10;;;;;;;14.07;11.93;;;;;;;0.28;52.27;95642.13;6968891;28;20242;-70
2021/01/11 01:07:30;;;;;;;13.97;11.83;;;;;;;0.30;52.06;95653.38;6994929;28;20219;-71
2021/01/11 01:10:51;;;;;;;14.73;11.70;;;;;;;0.24;51.90;95646.66;7028026;27;20289;-70
2021/01/11 01:14:11;;;;;;;12.60;10.37;;;;;;;0.19;51.80;95647.75;7019211;28;20253;-71
2021/01/11 01:17:36;;;;;;;15.20;12.40;;;;;;;0.13;52.07;95643.63;7010446;28;20378;-70
2021/01/11 01:20:59;;;;;;;14.13;11.43;;;;;;;0.10;52.01;95645.53;6997645;28;20296;-71
2021/01/11 01:24:22;;;;;;;15.67;11.70;;;;;;;0.12;52.01;95647.16;7039492;27;20579;-71
2021/01/11 01:27:45;;;;;;;13.53;11.00;;;;;;;0.11;51.91;95645.44;7018280;28;20286;-71
2021/01/11 01:31:05;;;;;;;14.10;11.07;;;;;;;0.12;51.86;95649.75;7000605;28;20217;-71
2021/01/11 01:34:26;;;;;;;15.13;11.43;;;;;;;0.12;51.89;95659.34;7015091;28;20260;-71
2021/01/11 01:37:49;;;;;;;14.47;12.10;;;;;;;0.13;52.00;95658.44;7027203;27;20272;-70
2021/01/11 01:41:10;;;;;;;15.20;12.27;;;;;;;0.20;52.08;95655.50;7022133;28;20217;-71
2021/01/11 01:44:33;;;;;;;15.03;12.07;;;;;;;0.21;51.85;95649.38;6996539;28;20218;-71
2021/01/11 01:47:56;;;;;;;15.00;11.70;;;;;;;0.22;51.61;95652.84;7018669;28;21017;-71
2021/01/11 01:51:18;;;;;;;14.33;11.50;;;;;;;0.14;51.39;95647.94;7011808;28;20220;-70
2021/01/11 01:54:42;;;;;;;14.13;11.13;;;;;;;0.01;51.55;95641.53;7019214;28;20287;-71
2021/01/11 01:58:04;;;;;;;13.20;11.67;;;;;;;-0.05;51.88;95649.63;7001946;28;20225;-71
2021/01/11 02:01:25;;;;;;;14.03;11.20;;;;;;;-0.06;51.77;95638.34;7018315;28;20218;-71
2021/01/11 02:04:48;;;;;;;15.33;11.83;;;;;;;-0.12;51.85;95653.38;7025863;28;20650;-70
2021/01/11 02:08:17;;;;;;;14.80;11.67;;;;;;;-0.17;52.02;95653.59;6973954;28;20722;-71
2021/01/11 02:12:05;;;;;;;14.70;11.87;;;;;;;-0.22;52.11;95647.69;6996676;28;20221;-71
2021/01/11 02:16:00;;;;;;;15.77;13.13;;;;;;;-0.22;52.30;95654.69;6986604;28;20229;-73
2021/01/11 02:20:02;;;;;;;15.30;12.53;;;;;;;-0.25;52.14;95655.63;6994607;28;20214;-71
2021/01/11 02:23:50;;;;;;;15.47;12.10;;;;;;;-0.32;52.36;95658.56;6979650;28;20215;-71
2021/01/11 02:27:19;;;;;;;14.17;11.20;;;;;;;-0.36;52.56;95657.00;6978174;28;20221;-71
2021/01/11 02:30:42;;;;;;;14.53;11.93;;;;;;;-0.35;52.60;95666.53;6982187;28;20300;-71
2021/01/11 02:34:03;;;;;;;15.17;12.50;;;;;;;-0.35;52.56;95648.25;6991539;28;20234;-71
2021/01/11 02:37:24;;;;;;;15.20;12.37;;;;;;;-0.31;52.71;95653.28;7005442;28;20238;-72
2021/01/11 02:40:45;;;;;;;16.60;12.17;;;;;;;-0.23;52.89;95651.22;6977663;28;20211;-71
2021/01/11 02:44:06;;;;;;;16.63;12.73;;;;;;;-0.23;52.82;95651.22;6979738;28;20210;-71
2021/01/11 02:47:31;;;;;;;14.67;11.87;;;;;;;-0.23;52.40;95655.59;6999385;28;20623;-70
2021/01/11 02:51:02;;;;;;;16.03;13.00;;;;;;;-0.37;52.55;95640.50;7002773;28;20219;-71
2021/01/11 02:54:25;;;;;;;15.43;12.53;;;;;;;-0.50;52.84;95645.31;7000291;28;20956;-70
2021/01/11 02:57:50;;;;;;;14.20;12.57;;;;;;;-0.52;53.15;95641.94;7000649;28;20614;-70
2021/01/11 03:01:12;;;;;;;14.33;12.67;;;;;;;-0.52;53.17;95639.34;6995236;28;20232;-70
2021/01/11 03:04:37;;;;;;;14.70;12.03;;;;;;;-0.47;53.35;95639.16;7002503;28;20599;-70
2021/01/11 03:08:00;;;;;;;15.17;12.53;;;;;;;-0.45;52.95;95645.16;6994161;28;20632;-71
2021/01/11 03:11:20;;;;;;;13.23;11.80;;;;;;;-0.38;53.15;95650.97;7002092;28;20257;-71
2021/01/11 03:14:41;;;;;;;15.80;12.53;;;;;;;-0.34;53.00;95653.41;6979439;28;20214;-70
2021/01/11 03:18:03;;;;;;;13.67;12.13;;;;;;;-0.29;53.01;95650.59;6996685;28;20304;-71
2021/01/11 03:21:26;;;;;;;14.97;12.00;;;;;;;-0.19;53.15;95655.38;6984427;28;20230;-70
2021/01/11 03:24:48;;;;;;;14.90;11.50;;;;;;;-0.08;52.83;95654.97;7020212;28;20304;-71
2021/01/11 03:28:11;;;;;;;14.57;11.57;;;;;;;-0.15;52.64;95649.13;6993199;28;20211;-70
2021/01/11 03:31:32;;;;;;;14.90;12.77;;;;;;;-0.28;52.64;95641.88;7004484;28;20302;-70
2021/01/11 03:34:54;;;;;;;14.90;12.83;;;;;;;-0.32;52.87;95641.16;6999771;28;20213;-71
2021/01/11 03:38:15;;;;;;;15.27;12.57;;;;;;;-0.33;52.93;95642.06;6989334;28;20207;-70
2021/01/11 03:41:42;;;;;;;16.23;12.90;;;;;;;-0.33;52.82;95631.63;7005042;28;20201;-70
2021/01/11 03:45:07;;;;;;;15.93;12.20;;;;;;;-0.30;52.88;95636.69;6992733;28;21952;-71
2021/01/11 03:48:30;;;;;;;15.80;13.10;;;;;;;-0.32;52.84;95635.09;7005234;28;20218;-71
2021/01/11 03:51:52;;;;;;;16.70;12.93;;;;;;;-0.36;52.85;95631.75;6991117;28;20307;-70
2021/01/11 03:55:19;;;;;;;17.03;13.03;;;;;;;-0.36;53.00;95646.56;7012030;28;20232;-70
2021/01/11 03:58:40;;;;;;;16.17;13.00;;;;;;;-0.36;52.92;95639.59;7000801;28;20205;-71
2021/01/11 04:02:00;;;;;;;14.43;11.77;;;;;;;-0.37;52.92;95637.88;7011233;28;20263;-70
2021/01/11 04:05:21;;;;;;;13.40;12.00;;;;;;;-0.37;52.55;95644.84;6979447;28;20219;-70
2021/01/11 04:08:41;;;;;;;14.10;11.37;;;;;;;-0.42;52.63;95642.44;6993618;28;20214;-71
2021/01/11 04:12:04;;;;;;;14.60;12.00;;;;;;;-0.44;52.73;95639.88;6996191;28;20868;-70
2021/01/11 04:15:24;;;;;;;17.07;12.80;;;;;;;-0.40;52.98;95632.75;6986595;28;20292;-71
2021/01/11 04:18:45;;;;;;;15.83;13.30;;;;;;;-0.32;53.06;95635.94;6993334;28;20209;-70
2021/01/11 04:22:05;;;;;;;16.00;12.40;;;;;;;-0.33;52.55;95639.44;6983338;28;20211;-71
2021/01/11 04:25:28;;;;;;;15.40;12.60;;;;;;;-0.44;52.80;95634.66;6999998;28;20703;-70
2021/01/11 04:28:48;;;;;;;15.17;12.27;;;;;;;-0.44;52.81;95637.25;7008636;27;20213;-70
2021/01/11 04:32:09;;;;;;;15.10;12.27;;;;;;;-0.41;52.90;95636.31;6987017;28;20218;-71
2021/01/11 04:35:30;;;;;;;15.73;13.13;;;;;;;-0.37;52.75;95635.28;6985988;28;20258;-70
2021/01/11 04:38:50;;;;;;;15.00;12.23;;;;;;;-0.36;52.78;95641.34;6989669;28;20217;-70
2021/01/11 04:42:12;;;;;;;14.10;11.60;;;;;;;-0.36;52.94;95649.16;6988525;28;20281;-70
2021/01/11 04:45:32;;;;;;;15.70;12.87;;;;;;;-0.36;52.73;95642.19;6974751;28;20224;-69
2021/01/11 04:48:52;;;;;;;15.03;12.70;;;;;;;-0.33;53.08;95652.50;7008524;28;20296;-71
2021/01/11 04:52:19;;;;;;;15.37;12.47;;;;;;;-0.28;52.85;95649.69;6984625;28;20267;-71
2021/01/11 04:55:45;;;;;;;15.23;12.17;;;;;;;-0.28;52.62;95662.75;6976918;28;20223;-70
2021/01/11 04:59:07;;;;;;;15.10;12.83;;;;;;;-0.34;52.83;95648.19;6986621;28;20218;-73
2021/01/11 05:02:28;;;;;;;14.70;12.17;;;;;;;-0.37;52.63;95650.94;7002557;28;20211;-73
2021/01/11 05:05:49;;;;;;;16.70;13.47;;;;;;;-0.38;52.94;95656.19;6983770;28;20217;-73
2021/01/11 05:09:14;;;;;;;17.40;14.00;;;;;;;-0.41;53.01;95654.56;7003596;28;20290;-73
2021/01/11 05:12:36;;;;;;;16.73;12.83;;;;;;;-0.46;52.81;95659.97;6992663;28;20224;-73
2021/01/11 05:16:11;;;;;;;17.23;13.90;;;;;;;-0.48;53.10;95660.94;6984583;28;20576;-73
2021/01/11 05:19:32;;;;;;;15.50;11.63;;;;;;;-0.44;53.03;95672.94;6987944;28;20573;-73
2021/01/11 05:22:54;;;;;;;17.40;14.07;;;;;;;-0.40;53.03;95678.91;6992945;28;20218;-73
2021/01/11 05:26:15;;;;;;;13.57;11.50;;;;;;;-0.44;52.69;95679.00;6972574;28;20222;-71
2021/01/11 05:29:37;;;;;;;13.70;12.20;;;;;;;-0.40;52.85;95684.94;6992947;28;20215;-71
2021/01/11 05:32:58;;;;;;;17.70;13.77;;;;;;;-0.39;52.87;95694.47;6990918;28;20215;-71
2021/01/11 05:36:19;;;;;;;16.13;13.17;;;;;;;-0.35;52.87;95690.84;6983858;28;20649;-71
2021/01/11 05:39:44;;;;;;;16.53;11.27;;;;;;;-0.33;52.62;95693.38;6988225;28;20230;-71
2021/01/11 05:43:07;;;;;;;16.40;12.97;;;;;;;-0.38;52.77;95688.34;6973019;28;20309;-71
2021/01/11 05:46:28;;;;;;;19.77;15.83;;;;;;;-0.36;53.00;95696.97;6981043;28;20221;-71
2021/01/11 05:49:53;;;;;;;17.70;13.10;;;;;;;-0.41;52.70;95698.06;6965522;28;20211;-72
2021/01/11 05:53:20;;;;;;;15.80;12.90;;;;;;;-0.43;53.14;95696.38;6969538;28;20580;-71
2021/01/11 05:56:54;;;;;;;15.57;12.67;;;;;;;-0.36;52.82;95704.81;6975796;28;20230;-71
2021/01/11 06:00:15;;;;;;;16.07;12.10;;;;;;;-0.32;52.93;95701.16;6967882;28;20306;-71
2021/01/11 06:03:35;;;;;;;17.20;13.07;;;;;;;-0.30;52.67;95703.72;6980610;28;20201;-70
2021/01/11 06:06:56;;;;;;;17.27;13.07;;;;;;;-0.31;52.71;95707.25;6993387;28;20381;-70
2021/01/11 06:10:17;;;;;;;15.17;12.00;;;;;;;-0.31;52.82;95715.06;7006909;28;20222;-70
2021/01/11 06:13:46;;;;;;;14.63;13.03;;;;;;;-0.28;52.75;95701.88;6999032;28;20706;-69
2021/01/11 06:17:09;;;;;;;15.43;12.30;;;;;;;-0.29;52.45;95702.78;6972708;28;20726;-70
2021/01/11 06:20:31;;;;;;;15.90;11.80;;;;;;;-0.34;52.47;95715.16;6975194;27;20268;-70
2021/01/11 06:24:21;;;;;;;17.10;13.37;;;;;;;-0.43;52.52;95711.16;7001952;28;20205;-70
2021/01/11 06:27:51;;;;;;;14.63;12.30;;;;;;;-0.49;52.61;95712.25;6995870;28;20220;-70
2021/01/11 06:31:13;;;;;;;16.13;11.93;;;;;;;-0.55;52.72;95703.81;7011555;27;20214;-70
2021/01/11 06:34:35;;;;;;;17.10;12.77;;;;;;;-0.58;52.95;95711.75;6990028;28;20221;-70
2021/01/11 06:38:18;;;;;;;16.47;13.73;;;;;;;-0.56;52.92;95705.59;6969555;28;20226;-70
2021/01/11 06:41:38;;;;;;;18.10;14.83;;;;;;;-0.54;53.00;95705.50;6985657;28;20249;-70
2021/01/11 06:44:58;;;;;;;17.73;14.37;;;;;;;-0.50;52.84;95701.88;6986470;28;20222;-71
2021/01/11 06:48:20;;;;;;;15.47;12.63;;;;;;;-0.55;52.90;95703.81;7008005;28;20225;-71
2021/01/11 06:51:42;;;;;;;17.20;13.13;;;;;;;-0.64;53.03;95705.00;7001517;28;20687;-71
2021/01/11 06:55:18;;;;;;;16.10;13.40;;;;;;;-0.71;53.22;95700.09;7005553;28;20229;-70
2021/01/11 06:58:40;;;;;;;18.23;14.57;;;;;;;-0.79;53.02;95700.38;6987504;28;20354;-70
2021/01/11 07:02:18;;;;;;;17.30;14.33;;;;;;;-0.88;53.16;95701.59;6978508;28;20297;-70
2021/01/11 07:05:44;;;;;;;15.63;12.73;;;;;;;-0.94;53.28;95704.41;6997783;28;20228;-70
2021/01/11 07:09:17;;;;;;;18.97;14.97;;;;;;;-1.01;53.37;95705.56;6990839;28;20222;-70
2021/01/11 07:12:43;;;;;;;20.80;16.20;;;;;;;-1.02;53.49;95714.28;6980985;28;20282;-72
2021/01/11 07:16:14;;;;;;;19.03;15.30;;;;;;;-1.03;53.76;95717.78;6982508;28;20615;-71
2021/01/11 07:19:37;;;;;;;18.63;14.73;;;;;;;-1.00;53.71;95716.81;7003562;28;20221;-71
2021/01/11 07:22:57;;;;;;;16.33;13.10;;;;;;;-1.00;53.74;95720.28;6986435;28;20615;-71
2021/01/11 07:26:26;;;;;;;17.40;13.37;;;;;;;-0.98;53.65;95717.63;7000030;28;20719;-71
2021/01/11 07:29:48;;;;;;;19.37;15.20;;;;;;;-0.94;53.58;95727.88;7010871;28;20690;-71
2021/01/11 07:33:12;;;;;;;17.57;14.17;;;;;;;-0.89;53.48;95720.72;6993171;28;20284;-71
2021/01/11 07:36:37;;;;;;;26.40;18.90;;;;;;;-0.83;53.46;95716.19;7007169;28;20229;-70
2021/01/11 07:40:05;;;;;;;21.43;15.53;;;;;;;-0.76;53.48;95725.50;6997757;28;20233;-71
2021/01/11 07:43:25;;;;;;;19.00;14.37;;;;;;;-0.66;53.67;95725.09;6989568;28;20226;-72
2021/01/11 07:47:00;;;;;;;21.00;14.77;;;;;;;-0.59;53.38;95726.56;6992777;28;20266;-70
2021/01/11 07:50:27;;;;;;;26.30;16.40;;;;;;;-0.45;53.40;95726.03;7010596;28;20303;-70
2021/01/11 07:53:52;;;;;;;17.13;14.70;;;;;;;-0.25;53.34;95725.28;7006644;27;20226;-71
2021/01/11 07:57:14;;;;;;;16.93;14.33;;;;;;;-0.11;52.76;95747.31;6982877;28;20275;-71
2021/01/11 08:00:37;;;;;;;15.80;13.17;;;;;;;-0.09;52.21;95752.44;7003497;28;20220;-70
2021/01/11 08:04:00;;;;;;;18.67;13.73;;;;;;;-0.13;52.23;95750.88;6989466;28;20215;-71
2021/01/11 08:07:31;;;;;;;16.43;13.93;;;;;;;-0.07;52.29;95743.66;6978620;28;20285;-70
2021/01/11 08:10:53;;;;;;;16.07;13.00;;;;;;;-0.07;51.93;95753.25;6985871;28;20784;-70
2021/01/11 08:14:14;;;;;;;13.67;11.87;;;;;;;-0.04;51.89;95760.94;6985324;28;20235;-70
2021/01/11 08:17:43;;;;;;;16.37;13.33;;;;;;;-0.05;51.76;95759.28;6989450;28;20228;-70
2021/01/11 08:21:15;;;;;;;17.30;14.77;;;;;;;-0.05;51.81;95756.66;6970053;28;20210;-70
2021/01/11 08:24:36;;;;;;;16.77;13.67;;;;;;;-0.12;51.74;95760.41;7003637;28;20213;-70
2021/01/11 08:27:57;;;;;;;18.00;14.17;;;;;;;-0.20;51.63;95770.31;6983061;28;20229;-69
2021/01/11 08:31:20;;;;;;;17.63;13.07;;;;;;;-0.21;52.00;95764.25;6990051;28;20715;-70
2021/01/11 08:34:41;;;;;;;16.10;13.27;;;;;;;-0.19;51.73;95767.63;6971275;28;21505;-70
2021/01/11 08:38:05;;;;;;;16.90;13.17;;;;;;;-0.04;51.78;95769.63;6991379;28;20226;-70
2021/01/11 08:41:29;;;;;;;16.17;13.33;;;;;;;0.18;51.65;95758.34;6986868;28;20671;-69
2021/01/11 08:44:52;;;;;;;14.50;12.97;;;;;;;0.46;51.14;95768.50;6982527;28;20213;-70
2021/01/11 08:48:15;;;;;;;17.93;13.93;;;;;;;0.55;50.53;95770.75;6999776;28;20219;-70
2021/01/11 08:51:35;;;;;;;14.87;13.30;;;;;;;1.25;50.37;95769.44;6990742;28;20891;-70
2021/01/11 08:54:56;;;;;;;17.10;13.70;;;;;;;2.29;49.82;95765.44;6970856;28;20215;-71
2021/01/11 08:58:16;;;;;;;17.67;13.33;;;;;;;3.14;47.86;95765.53;6984147;28;20207;-70
2021/01/11 09:01:41;;;;;;;15.30;13.17;;;;;;;3.76;46.33;95756.97;6991178;28;20301;-71
2021/01/11 09:05:27;;;;;;;16.27;13.47;;;;;;;4.45;45.34;95762.72;6982606;28;20207;-70
2021/01/11 09:08:47;;;;;;;17.57;12.83;;;;;;;5.01;43.73;95761.25;6994924;28;20217;-71
2021/01/11 09:12:08;;;;;;;15.37;13.40;;;;;;;5.54;42.76;95771.19;7001542;28;20318;-70
2021/01/11 09:15:29;;;;;;;15.03;12.37;;;;;;;5.75;41.11;95763.75;7012289;27;20778;-70
2021/01/11 09:18:51;;;;;;;14.03;12.50;;;;;;;5.87;41.40;95771.78;7011461;27;20683;-70
2021/01/11 09:22:15;;;;;;;16.57;14.00;;;;;;;6.18;40.56;95772.50;6999541;28;20209;-70
2021/01/11 09:25:36;;;;;;;17.47;14.00;;;;;;;6.22;39.40;95774.00;6993145;28;20298;-71
2021/01/11 09:28:56;;;;;;;14.83;13.30;;;;;;;6.27;39.34;95756.94;7004962;28;20213;-70
2021/01/11 09:32:17;;;;;;;18.53;15.90;;;;;;;6.40;38.97;95765.75;6984044;28;20296;-71
2021/01/11 09:35:38;;;;;;;15.97;13.43;;;;;;;6.46;38.70;95760.09;6978887;28;20221;-72
2021/01/11 09:38:58;;;;;;;13.57;12.17;;;;;;;6.81;39.07;95776.28;6997349;28;20288;-73
2021/01/11 09:42:19;;;;;;;15.57;13.50;;;;;;;7.09;37.92;95771.81;6991890;28;20241;-71
2021/01/11 09:45:41;;;;;;;13.47;12.07;;;;;;;7.07;37.01;95755.22;6992391;28;20574;-71
2021/01/11 09:49:08;;;;;;;16.53;13.13;;;;;;;7.20;37.05;95766.63;6979389;27;21156;-72
2021/01/11 09:52:28;;;;;;;15.03;13.03;;;;;;;7.37;36.72;95770.78;6944769;28;20216;-73
2021/01/11 09:55:52;;;;;;;14.73;13.13;;;;;;;7.43;36.28;95770.38;6946972;28;20627;-72
2021/01/11 09:59:14;;;;;;;14.00;12.60;;;;;;;7.52;36.20;95762.66;6953561;28;20277;-71
2021/01/11 10:02:34;;;;;;;14.23;12.73;;;;;;;7.66;36.08;95762.53;6960373;28;20636;-72
2021/01/11 10:05:58;;;;;;;14.17;12.67;;;;;;;7.83;35.28;95753.44;6982463;28;20673;-72
2021/01/11 10:09:23;;;;;;;16.57;14.63;;;;;;;8.16;35.61;95760.78;6966570;28;20227;-72
2021/01/11 10:12:46;;;;;;;16.53;14.20;;;;;;;8.42;34.53;95756.31;6964179;28;20212;-71
2021/01/11 10:16:07;;;;;;;16.40;13.67;;;;;;;8.66;34.60;95757.16;6950540;28;20228;-71
2021/01/11 10:19:28;;;;;;;14.87;13.37;;;;;;;8.79;34.11;95757.97;6961341;28;20218;-71
2021/01/11 10:22:49;;;;;;;15.23;13.40;;;;;;;8.89;33.46;95752.84;6977722;28;20271;-71
2021/01/11 10:26:39;;;;;;;14.17;12.63;;;;;;;9.28;33.54;95747.19;6972296;28;20288;-71
2021/01/11 10:30:00;;;;;;;13.93;12.47;;;;;;;9.65;32.78;95739.09;6975712;28;20218;-71
2021/01/11 10:33:20;;;;;;;15.20;13.10;;;;;;;10.00;32.78;95715.94;6955453;28;20226;-71
2021/01/11 10:36:43;;;;;;;15.57;13.87;;;;;;;10.56;31.63;95715.91;6969860;28;20218;-71
2021/01/11 10:40:06;;;;;;;15.70;13.67;;;;;;;12.58;30.66;95712.66;6966065;28;20245;-72
2021/01/11 10:43:29;;;;;;;15.77;14.00;;;;;;;14.64;29.45;95691.53;6957254;28;20234;-71
2021/01/11 10:46:53;;;;;;;16.10;14.40;;;;;;;15.76;27.19;95675.66;6962515;28;20224;-71
2021/01/11 10:50:13;;;;;;;15.63;13.93;;;;;;;16.69;25.59;95687.38;6979139;28;20278;-71
2021/01/11 10:53:34;;;;;;;15.83;14.13;;;;;;;17.37;24.58;95687.97;6968418;28;20217;-71
2021/01/11 10:56:54;;;;;;;14.60;13.10;;;;;;;17.83;23.59;95691.88;6978801;28;20237;-72
2021/01/11 11:00:18;;;;;;;14.67;13.23;;;;;;;18.21;22.97;95689.41;6943511;28;20228;-71
2021/01/11 11:03:40;;;;;;;15.80;14.30;;;;;;;18.95;22.66;95680.91;6959955;28;20580;-71
2021/01/11 11:07:01;;;;;;;16.63;15.03;;;;;;;19.57;21.62;95678.97;6969954;28;20219;-72
2021/01/11 11:10:24;;;;;;;15.70;14.20;;;;;;;19.54;20.80;95679.34;6950635;28;20323;-71
2021/01/11 11:13:45;;;;;;;14.57;13.33;;;;;;;19.89;20.68;95680.56;6957690;28;20214;-72
2021/01/11 11:17:13;;;;;;;14.67;13.37;;;;;;;19.92;20.43;95669.41;6928085;28;20596;-71
2021/01/11 11:20:33;;;;;;;15.63;14.17;;;;;;;19.48;19.74;95666.59;6962008;28;20756;-74
2021/01/11 11:23:54;;;;;;;16.53;14.97;;;;;;;17.17;20.69;95665.16;6923705;28;20215;-71
2021/01/11 11:27:14;;;;;;;16.23;14.73;;;;;;;15.00;21.73;95671.81;6931323;28;20277;-71
2021/01/11 11:30:35;;;;;;;16.33;14.73;;;;;;;13.08;23.39;95685.91;6926066;28;20313;-71
2021/01/11 11:33:55;;;;;;;15.73;14.23;;;;;;;11.48;25.28;95670.03;6921113;28;20215;-72
2021/01/11 11:37:20;;;;;;;16.77;15.10;;;;;;;10.42;26.56;95663.91;6930460;28;20701;-72
2021/01/11 11:40:41;;;;;;;16.37;14.67;;;;;;;9.46;28.18;95676.88;6930214;28;20234;-72
2021/01/11 11:44:02;;;;;;;15.87;14.27;;;;;;;8.70;29.10;95671.25;6946356;28;20230;-71
2021/01/11 11:47:22;;;;;;;17.70;15.73;;;;;;;8.15;30.30;95671.81;6934613;28;20242;-71
2021/01/11 11:50:45;;;;;;;17.13;15.40;;;;;;;7.45;31.51;95682.09;6940143;28;20617;-71
2021/01/11 11:54:05;;;;;;;19.03;16.10;;;;;;;6.88;32.26;95677.25;6934608;28;20715;-72
2021/01/11 11:57:28;;;;;;;17.87;16.07;;;;;;;6.43;32.98;95669.75;6952299;28;20215;-71
2021/01/11 12:00:48;;;;;;;16.37;14.67;;;;;;;5.99;33.88;95657.66;6914447;28;20219;-71
2021/01/11 12:04:09;;;;;;;15.93;14.23;;;;;;;5.77;34.67;95657.31;6925275;28;20287;-71
2021/01/11 12:07:29;;;;;;;16.97;15.17;;;;;;;5.49;35.15;95655.56;6951446;28;20262;-71
2021/01/11 12:10:49;;;;;;;19.97;16.53;;;;;;;5.33;35.73;95654.00;6928745;28;20246;-72
2021/01/11 12:14:10;;;;;;;17.90;15.97;;;;;;;5.13;36.08;95647.34;6944936;28;20627;-72
2021/01/11 12:17:33;;;;;;;16.10;14.50;;;;;;;5.07;36.70;95651.19;6929687;28;20298;-71
2021/01/11 12:20:56;;;;;;;17.50;15.63;;;;;;;5.08;37.19;95644.13;6948367;28;20298;-71
2021/01/11 12:24:19;;;;;;;17.77;15.77;;;;;;;4.95;37.53;95638.75;6936174;28;20219;-71
2021/01/11 12:27:41;;;;;;;17.57;15.37;;;;;;;4.79;37.59;95643.25;6975654;28;20225;-72
2021/01/11 12:31:04;;;;;;;17.67;15.30;;;;;;;4.60;37.61;95643.50;6935923;28;20226;-71
2021/01/11 12:34:24;;;;;;;19.37;15.90;;;;;;;4.46;38.00;95640.84;6950655;28;20793;-70
2021/01/11 12:37:47;;;;;;;19.50;16.47;;;;;;;4.54;39.07;95637.75;6951529;28;20223;-71
2021/01/11 12:41:10;;;;;;;18.43;16.10;;;;;;;4.61;38.86;95639.94;6947657;28;20287;-70
2021/01/11 12:44:30;;;;;;;21.57;17.60;;;;;;;4.48;38.97;95638.94;6969968;28;20314;-71
2021/01/11 12:47:51;;;;;;;18.60;15.60;;;;;;;4.30;39.05;95637.41;6948374;28;20717;-72
2021/01/11 12:51:19;;;;;;;18.20;15.87;;;;;;;4.33;38.88;95629.31;6973883;28;20238;-71
2021/01/11 12:54:39;;;;;;;19.53;16.03;;;;;;;4.29;39.46;95630.44;6951097;28;20206;-71
2021/01/11 12:58:02;;;;;;;20.47;16.60;;;;;;;4.26;39.41;95628.00;6937418;28;20246;-72
2021/01/11 13:01:27;;;;;;;18.10;16.00;;;;;;;4.25;39.74;95623.69;6958767;28;20214;-71
2021/01/11 13:04:50;;;;;;;19.10;16.23;;;;;;;4.21;39.91;95630.91;6936968;28;20213;-71
2021/01/11 13:08:10;;;;;;;16.33;14.53;;;;;;;4.17;39.91;95628.56;6960216;28;20247;-71
2021/01/11 13:11:31;;;;;;;16.70;14.83;;;;;;;4.15;39.88;95628.63;6947628;28;20232;-71
2021/01/11 13:14:52;;;;;;;17.17;15.27;;;;;;;4.11;39.63;95636.78;6950278;28;20615;-71
2021/01/11 13:18:13;;;;;;;16.77;14.97;;;;;;;4.12;40.53;95643.75;6968054;28;20729;-70
2021/01/11 13:21:35;;;;;;;17.40;15.57;;;;;;;4.08;39.99;95636.94;6945592;28;20218;-71
2021/01/11 13:24:55;;;;;;;18.53;15.80;;;;;;;4.00;40.64;95634.75;6959178;28;20235;-71
2021/01/11 13:28:20;;;;;;;20.33;17.33;;;;;;;4.00;40.99;95636.53;6963825;28;20586;-71
2021/01/11 13:31:48;;;;;;;17.93;15.43;;;;;;;3.91;41.04;95635.28;6942405;28;20248;-71
2021/01/11 13:35:12;;;;;;;18.30;16.30;;;;;;;3.91;41.78;95651.06;6940660;28;20210;-69
2021/01/11 13:38:32;;;;;;;18.77;16.77;;;;;;;3.96;42.38;95650.78;6966269;28;20261;-71
2021/01/11 13:41:57;;;;;;;20.80;16.67;;;;;;;4.01;42.08;95662.75;6953232;28;20241;-71
2021/01/11 13:45:18;;;;;;;18.40;16.37;;;;;;;4.06;42.46;95657.22;6956905;28;20332;-71
2021/01/11 13:48:39;;;;;;;18.60;16.20;;;;;;;4.10;42.26;95664.00;6963419;28;20217;-72
2021/01/11 13:52:01;;;;;;;19.40;16.47;;;;;;;4.11;42.49;95648.16;6954892;28;20213;-71
2021/01/11 13:55:24;;;;;;;20.90;17.10;;;;;;;4.09;42.44;95654.41;6949714;28;20378;-71
2021/01/11 13:58:44;;;;;;;20.30;16.60;;;;;;;4.13;42.81;95664.66;6959916;28;20218;-70
2021/01/11 14:02:07;;;;;;;20.77;16.37;;;;;;;4.18;42.36;95665.25;6957111;28;20250;-71
2021/01/11 14:05:28;;;;;;;19.80;16.57;;;;;;;4.19;42.64;95666.09;6936986;28;20602;-71
2021/01/11 14:08:48;;;;;;;19.37;17.00;;;;;;;4.18;42.58;95665.25;6946872;28;20745;-71
2021/01/11 14:12:08;;;;;;;19.40;15.83;;;;;;;4.23;42.73;95670.22;6936964;28;20320;-71
2021/01/11 14:15:29;;;;;;;19.50;16.13;;;;;;;4.21;42.80;95667.72;6950713;28;20238;-71
2021/01/11 14:18:50;;;;;;;19.43;16.67;;;;;;;4.20;42.64;95662.53;6945061;28;20218;-71
2021/01/11 14:22:11;;;;;;;20.33;16.33;;;;;;;4.14;42.99;95668.13;6932443;28;20227;-70
2021/01/11 14:25:34;;;;;;;18.90;16.37;;;;;;;4.15;42.53;95664.56;6950585;28;20234;-70
2021/01/11 14:28:54;;;;;;;18.60;16.63;;;;;;;4.18;42.61;95665.25;6960034;28;20223;-70
2021/01/11 14:32:14;;;;;;;18.80;16.40;;;;;;;4.23;43.08;95667.59;6928186;28;20231;-70
2021/01/11 14:35:37;;;;;;;19.77;16.83;;;;;;;4.05;42.47;95674.78;6936997;28;20218;-70
2021/01/11 14:38:58;;;;;;;20.07;17.50;;;;;;;3.78;42.77;95679.78;6957089;28;20344;-72
2021/01/11 14:42:18;;;;;;;21.83;17.93;;;;;;;3.60;42.90;95683.44;6962040;28;20222;-71
2021/01/11 14:45:39;;;;;;;20.60;17.83;;;;;;;3.46;43.23;95683.34;6956687;28;20214;-71
2021/01/11 14:48:59;;;;;;;24.17;19.33;;;;;;;3.35;43.33;95688.31;6968088;28;20238;-71
2021/01/11 14:52:20;;;;;;;19.83;17.37;;;;;;;3.25;44.14;95698.47;6981943;28;20241;-71
2021/01/11 14:55:40;;;;;;;19.40;17.07;;;;;;;3.15;43.87;95694.63;6960090;28;20218;-72
2021/01/11 14:59:03;;;;;;;19.83;17.73;;;;;;;3.17;44.52;95686.69;6940277;28;20225;-71
2021/01/11 15:02:25;;;;;;;20.33;16.63;;;;;;;3.17;44.09;95687.50;6967550;28;20705;-71
2021/01/11 15:05:46;;;;;;;22.20;19.20;;;;;;;3.11;44.25;95684.38;6945703;28;20591;-71
2021/01/11 15:09:07;;;;;;;22.17;17.40;;;;;;;3.06;44.52;95692.50;6969500;28;20703;-71
2021/01/11 15:12:30;;;;;;;21.53;17.80;;;;;;;3.07;44.92;95683.66;6959157;28;20252;-71
2021/01/11 15:15:50;;;;;;;22.60;19.57;;;;;;;3.06;44.53;95689.88;6935981;28;20278;-70
2021/01/11 15:19:15;;;;;;;23.00;19.17;;;;;;;3.00;44.53;95688.41;6966032;28;20221;-71
2021/01/11 15:22:38;;;;;;;21.70;18.70;;;;;;;2.94;44.74;95693.97;6951796;28;20221;-71
2021/01/11 15:25:58;;;;;;;21.40;18.13;;;;;;;2.91;44.99;95683.66;6936807;28;20222;-71
2021/01/11 15:29:19;;;;;;;22.17;18.57;;;;;;;2.88;44.91;95686.41;6962283;28;20232;-71
2021/01/11 15:32:39;;;;;;;22.07;19.20;;;;;;;2.84;45.13;95682.25;6929855;28;20233;-71
2021/01/11 15:36:02;;;;;;;22.07;18.63;;;;;;;2.81;44.96;95684.19;6978441;28;20766;-71
2021/01/11 15:39:25;;;;;;;22.00;18.70;;;;;;;2.75;45.23;95687.13;6940931;28;20318;-71